sensor_id;sensor_type;location;lat;lon;timestamp;pressure;altitude;pressure_sealevel;temperature;humidity
63115;BME280;49208;50.874;6.466;2023-07-13T06:03:25;100542.75;;;19.14;67.15
63115;BME280;49208;50.874;6.466;2023-07-13T06:05:51;100544.84;;;20.23;63.11
63115;BME280;49208;50.874;6.466;2023-07-13T06:08:16;100552.53;;;20.88;59.03
63115;BME280;49208;50.874;6.466;2023-07-13T06:10:41;100551.72;;;21.10;57.18
63115;BME280;49208;50.874;6.466;2023-07-13T06:13:07;100551.75;;;21.22;55.92
63115;BME280;49208;50.874;6.466;2023-07-13T06:15:32;100548.50;;;21.63;54.89
63115;BME280;49208;50.874;6.466;2023-07-13T06:17:58;100542.69;;;22.45;52.94
63115;BME280;49208;50.874;6.466;2023-07-13T06:20:23;100545.19;;;23.23;51.56
63115;BME280;49208;50.874;6.466;2023-07-13T06:22:49;100548.06;;;24.43;48.15
63115;BME280;49208;50.874;6.466;2023-07-13T06:25:14;100548.75;;;25.13;45.94
63115;BME280;49208;50.874;6.466;2023-07-13T06:27:39;100543.94;;;25.81;44.43
63115;BME280;49208;50.874;6.466;2023-07-13T06:30:05;100541.91;;;25.93;43.81
63115;BME280;49208;50.874;6.466;2023-07-13T06:32:31;100546.28;;;26.50;43.20
63115;BME280;49208;50.874;6.466;2023-07-13T06:34:56;100559.34;;;26.92;41.33
63115;BME280;49208;50.874;6.466;2023-07-13T06:37:21;100556.56;;;27.10;40.33
63115;BME280;49208;50.874;6.466;2023-07-13T06:39:47;100561.34;;;27.60;39.93
63115;BME280;49208;50.874;6.466;2023-07-13T06:42:12;100560.41;;;28.12;38.81
63115;BME280;49208;50.874;6.466;2023-07-13T06:44:37;100559.03;;;27.99;38.50
63115;BME280;49208;50.874;6.466;2023-07-13T06:47:03;100570.31;;;28.55;38.91
63115;BME280;49208;50.874;6.466;2023-07-13T06:49:29;100574.63;;;28.99;37.30
63115;BME280;49208;50.874;6.466;2023-07-13T06:51:54;100582.50;;;29.35;36.79
63115;BME280;49208;50.874;6.466;2023-07-13T06:54:20;100574.41;;;28.59;36.59
63115;BME280;49208;50.874;6.466;2023-07-13T06:56:45;100583.50;;;27.49;38.53
63115;BME280;49208;50.874;6.466;2023-07-13T06:59:10;100581.81;;;26.22;41.40
63115;BME280;49208;50.874;6.466;2023-07-13T07:01:36;100587.31;;;24.98;43.88
63115;BME280;49208;50.874;6.466;2023-07-13T07:04:01;100584.38;;;23.82;46.90
63115;BME280;49208;50.874;6.466;2023-07-13T07:06:27;100588.00;;;22.98;48.91
63115;BME280;49208;50.874;6.466;2023-07-13T07:08:53;100592.97;;;22.49;50.64
63115;BME280;49208;50.874;6.466;2023-07-13T07:11:21;100592.81;;;21.85;53.15
63115;BME280;49208;50.874;6.466;2023-07-13T07:13:51;100598.72;;;21.56;55.01
63115;BME280;49208;50.874;6.466;2023-07-13T07:16:17;100594.22;;;21.32;55.59
63115;BME280;49208;50.874;6.466;2023-07-13T07:18:44;100594.06;;;21.11;55.78
63115;BME280;49208;50.874;6.466;2023-07-13T07:21:10;100596.50;;;21.03;57.84
63115;BME280;49208;50.874;6.466;2023-07-13T07:23:35;100600.91;;;21.04;58.43
63115;BME280;49208;50.874;6.466;2023-07-13T07:26:01;100602.56;;;21.18;58.44
63115;BME280;49208;50.874;6.466;2023-07-13T07:28:26;100597.16;;;21.18;57.27
63115;BME280;49208;50.874;6.466;2023-07-13T07:30:54;100601.81;;;21.05;57.21
63115;BME280;49208;50.874;6.466;2023-07-13T07:33:20;100601.66;;;21.06;57.60
63115;BME280;49208;50.874;6.466;2023-07-13T07:35:46;100608.72;;;21.09;57.59
63115;BME280;49208;50.874;6.466;2023-07-13T07:38:11;100594.56;;;21.16;58.59
63115;BME280;49208;50.874;6.466;2023-07-13T07:40:40;100591.78;;;21.40;58.14
63115;BME280;49208;50.874;6.466;2023-07-13T07:43:10;100596.03;;;21.78;56.53
63115;BME280;49208;50.874;6.466;2023-07-13T07:45:36;100600.94;;;22.07;56.14
63115;BME280;49208;50.874;6.466;2023-07-13T07:48:03;100601.22;;;22.27;54.62
63115;BME280;49208;50.874;6.466;2023-07-13T07:50:29;100598.34;;;22.28;53.60
63115;BME280;49208;50.874;6.466;2023-07-13T07:52:55;100597.38;;;22.29;53.36
63115;BME280;49208;50.874;6.466;2023-07-13T07:55:24;100594.41;;;22.21;53.03
63115;BME280;49208;50.874;6.466;2023-07-13T07:57:53;100592.66;;;22.20;53.08
63115;BME280;49208;50.874;6.466;2023-07-13T08:00:19;100603.25;;;22.34;53.25
63115;BME280;49208;50.874;6.466;2023-07-13T08:02:45;100601.16;;;22.38;52.77
63115;BME280;49208;50.874;6.466;2023-07-13T08:05:10;100595.25;;;22.33;52.80
63115;BME280;49208;50.874;6.466;2023-07-13T08:07:39;100593.53;;;22.20;52.71
63115;BME280;49208;50.874;6.466;2023-07-13T08:10:06;100599.34;;;22.27;53.30
63115;BME280;49208;50.874;6.466;2023-07-13T08:12:35;100597.09;;;22.44;53.07
63115;BME280;49208;50.874;6.466;2023-07-13T08:15:01;100596.69;;;22.48;53.34
63115;BME280;49208;50.874;6.466;2023-07-13T08:17:27;100589.25;;;22.62;51.98
63115;BME280;49208;50.874;6.466;2023-07-13T08:19:52;100599.00;;;22.64;52.92
63115;BME280;49208;50.874;6.466;2023-07-13T08:22:18;100598.22;;;22.73;52.57
63115;BME280;49208;50.874;6.466;2023-07-13T08:24:43;100602.50;;;22.87;52.41
63115;BME280;49208;50.874;6.466;2023-07-13T08:27:10;100584.06;;;22.91;51.58
63115;BME280;49208;50.874;6.466;2023-07-13T08:29:39;100578.72;;;23.00;51.90
63115;BME280;49208;50.874;6.466;2023-07-13T08:32:05;100582.16;;;23.14;50.91
63115;BME280;49208;50.874;6.466;2023-07-13T08:34:34;100575.81;;;23.34;51.20
63115;BME280;49208;50.874;6.466;2023-07-13T08:36:59;100588.06;;;23.50;49.99
63115;BME280;49208;50.874;6.466;2023-07-13T08:39:25;100586.03;;;23.42;48.89
63115;BME280;49208;50.874;6.466;2023-07-13T08:41:57;100589.22;;;23.26;50.00
63115;BME280;49208;50.874;6.466;2023-07-13T08:44:56;100585.13;;;23.11;49.81
63115;BME280;49208;50.874;6.466;2023-07-13T08:47:30;100587.75;;;23.01;50.56
63115;BME280;49208;50.874;6.466;2023-07-13T08:49:56;100581.00;;;23.16;50.57
63115;BME280;49208;50.874;6.466;2023-07-13T08:52:35;100586.44;;;23.37;49.93
63115;BME280;49208;50.874;6.466;2023-07-13T08:55:29;100581.06;;;23.47;49.44
63115;BME280;49208;50.874;6.466;2023-07-13T08:58:14;100585.09;;;23.84;49.87
63115;BME280;49208;50.874;6.466;2023-07-13T09:00:59;100586.22;;;24.21;48.20
63115;BME280;49208;50.874;6.466;2023-07-13T09:03:46;100593.75;;;24.49;46.46
63115;BME280;49208;50.874;6.466;2023-07-13T09:06:20;100585.34;;;24.81;46.08
63115;BME280;49208;50.874;6.466;2023-07-13T09:09:15;100586.75;;;25.24;45.67
63115;BME280;49208;50.874;6.466;2023-07-13T09:12:18;100596.03;;;25.51;44.56
63115;BME280;49208;50.874;6.466;2023-07-13T09:14:48;100599.25;;;25.74;43.68
63115;BME280;49208;50.874;6.466;2023-07-13T09:17:22;100589.31;;;25.92;43.25
63115;BME280;49208;50.874;6.466;2023-07-13T09:19:54;100591.06;;;26.11;42.21
63115;BME280;49208;50.874;6.466;2023-07-13T09:22:23;100594.69;;;26.30;40.83
63115;BME280;49208;50.874;6.466;2023-07-13T09:25:05;100593.16;;;26.45;41.80
63115;BME280;49208;50.874;6.466;2023-07-13T09:27:36;100591.47;;;26.62;41.07
63115;BME280;49208;50.874;6.466;2023-07-13T09:32:43;100587.03;;;26.61;40.82
63115;BME280;49208;50.874;6.466;2023-07-13T09:35:18;100585.56;;;26.67;40.74
63115;BME280;49208;50.874;6.466;2023-07-13T09:37:45;100583.16;;;26.81;41.82
63115;BME280;49208;50.874;6.466;2023-07-13T09:40:17;100591.16;;;27.01;40.13
63115;BME280;49208;50.874;6.466;2023-07-13T09:42:46;100587.16;;;27.13;39.88
63115;BME280;49208;50.874;6.466;2023-07-13T09:45:17;100579.28;;;27.28;39.42
63115;BME280;49208;50.874;6.466;2023-07-13T09:48:00;100578.97;;;27.13;39.31
63115;BME280;49208;50.874;6.466;2023-07-13T09:50:28;100582.59;;;26.78;39.63
63115;BME280;49208;50.874;6.466;2023-07-13T09:52:55;100581.16;;;26.38;40.92
63115;BME280;49208;50.874;6.466;2023-07-13T09:55:24;100583.03;;;26.10;41.03
63115;BME280;49208;50.874;6.466;2023-07-13T09:57:50;100583.97;;;26.00;41.50
63115;BME280;49208;50.874;6.466;2023-07-13T10:00:28;100583.19;;;26.08;41.02
63115;BME280;49208;50.874;6.466;2023-07-13T10:03:27;100578.50;;;26.46;42.13
63115;BME280;49208;50.874;6.466;2023-07-13T10:05:52;100581.13;;;26.66;41.24
63115;BME280;49208;50.874;6.466;2023-07-13T10:08:18;100584.06;;;26.54;40.90
63115;BME280;49208;50.874;6.466;2023-07-13T10:10:44;100587.22;;;26.32;41.06
63115;BME280;49208;50.874;6.466;2023-07-13T10:13:25;100584.34;;;26.06;40.98
63115;BME280;49208;50.874;6.466;2023-07-13T10:15:51;100591.00;;;25.93;41.67
63115;BME280;49208;50.874;6.466;2023-07-13T10:18:17;100598.34;;;25.83;41.74
63115;BME280;49208;50.874;6.466;2023-07-13T10:20:44;100604.72;;;25.64;42.15
63115;BME280;49208;50.874;6.466;2023-07-13T10:23:15;100609.66;;;25.51;42.05
63115;BME280;49208;50.874;6.466;2023-07-13T10:25:47;100603.38;;;25.31;43.31
63115;BME280;49208;50.874;6.466;2023-07-13T10:28:30;100608.56;;;25.24;43.09
63115;BME280;49208;50.874;6.466;2023-07-13T10:30:58;100608.44;;;25.26;43.95
63115;BME280;49208;50.874;6.466;2023-07-13T10:33:25;100612.59;;;25.30;43.87
63115;BME280;49208;50.874;6.466;2023-07-13T10:35:57;100608.47;;;25.63;43.51
63115;BME280;49208;50.874;6.466;2023-07-13T10:38:27;100603.34;;;25.97;43.08
63115;BME280;49208;50.874;6.466;2023-07-13T10:41:03;100603.59;;;26.32;42.45
63115;BME280;49208;50.874;6.466;2023-07-13T10:43:47;100606.50;;;26.48;42.37
63115;BME280;49208;50.874;6.466;2023-07-13T10:46:16;100613.13;;;26.46;41.01
63115;BME280;49208;50.874;6.466;2023-07-13T10:48:45;100605.72;;;26.10;40.88
63115;BME280;49208;50.874;6.466;2023-07-13T10:51:14;100614.31;;;25.78;41.48
63115;BME280;49208;50.874;6.466;2023-07-13T10:53:40;100629.25;;;25.64;42.68
63115;BME280;49208;50.874;6.466;2023-07-13T10:56:23;100624.88;;;25.44;42.12
63115;BME280;49208;50.874;6.466;2023-07-13T10:59:09;100624.34;;;25.20;42.94
63115;BME280;49208;50.874;6.466;2023-07-13T11:01:49;100630.63;;;25.01;43.24
63115;BME280;49208;50.874;6.466;2023-07-13T11:04:18;100617.28;;;24.79;43.82
63115;BME280;49208;50.874;6.466;2023-07-13T11:06:47;100619.44;;;24.66;44.67
63115;BME280;49208;50.874;6.466;2023-07-13T11:09:34;100624.00;;;24.55;44.73
63115;BME280;49208;50.874;6.466;2023-07-13T11:19:54;100632.47;;;24.62;42.99
63115;BME280;49208;50.874;6.466;2023-07-13T11:22:42;100620.84;;;24.60;43.20
63115;BME280;49208;50.874;6.466;2023-07-13T11:28:06;100624.81;;;24.46;44.27
63115;BME280;49208;50.874;6.466;2023-07-13T11:33:19;100622.63;;;24.40;44.47
63115;BME280;49208;50.874;6.466;2023-07-13T11:36:02;100619.38;;;24.46;44.75
63115;BME280;49208;50.874;6.466;2023-07-13T11:38:37;100616.69;;;24.56;45.24
63115;BME280;49208;50.874;6.466;2023-07-13T11:41:27;100617.44;;;24.68;44.95
63115;BME280;49208;50.874;6.466;2023-07-13T11:43:53;100619.28;;;25.16;44.62
63115;BME280;49208;50.874;6.466;2023-07-13T11:46:26;100621.56;;;25.40;42.58
63115;BME280;49208;50.874;6.466;2023-07-13T11:48:53;100625.91;;;25.33;42.54
63115;BME280;49208;50.874;6.466;2023-07-13T11:51:28;100619.28;;;25.06;42.64
63115;BME280;49208;50.874;6.466;2023-07-13T11:53:59;100622.03;;;24.77;43.45
63115;BME280;49208;50.874;6.466;2023-07-13T11:56:26;100615.97;;;24.54;43.47
63115;BME280;49208;50.874;6.466;2023-07-13T11:58:55;100617.91;;;24.42;43.62
63115;BME280;49208;50.874;6.466;2023-07-13T12:01:24;100609.47;;;24.35;43.80
63115;BME280;49208;50.874;6.466;2023-07-13T12:03:51;100620.59;;;24.23;43.16
63115;BME280;49208;50.874;6.466;2023-07-13T12:09:02;100614.88;;;24.26;44.72
63115;BME280;49208;50.874;6.466;2023-07-13T12:11:29;100623.06;;;24.35;43.75
63115;BME280;49208;50.874;6.466;2023-07-13T12:13:54;100623.34;;;24.42;43.42
63115;BME280;49208;50.874;6.466;2023-07-13T12:16:28;100619.16;;;24.78;43.46
63115;BME280;49208;50.874;6.466;2023-07-13T12:18:55;100622.47;;;25.21;42.06
63115;BME280;49208;50.874;6.466;2023-07-13T12:21:26;100617.41;;;25.46;41.09
63115;BME280;49208;50.874;6.466;2023-07-13T12:23:53;100610.75;;;25.68;41.18
63115;BME280;49208;50.874;6.466;2023-07-13T12:26:18;100610.72;;;25.77;40.98
63115;BME280;49208;50.874;6.466;2023-07-13T12:28:51;100623.88;;;25.92;40.42
63115;BME280;49208;50.874;6.466;2023-07-13T12:33:57;100615.16;;;26.16;39.19
63115;BME280;49208;50.874;6.466;2023-07-13T12:36:23;100619.78;;;26.15;38.38
63115;BME280;49208;50.874;6.466;2023-07-13T12:38:48;100616.84;;;25.99;38.48
63115;BME280;49208;50.874;6.466;2023-07-13T12:41:14;100618.44;;;25.82;39.72
63115;BME280;49208;50.874;6.466;2023-07-13T12:43:40;100605.34;;;25.86;39.86
63115;BME280;49208;50.874;6.466;2023-07-13T12:46:24;100621.00;;;25.84;39.66
63115;BME280;49208;50.874;6.466;2023-07-13T12:48:53;100621.94;;;25.65;39.99
63115;BME280;49208;50.874;6.466;2023-07-13T12:51:22;100617.78;;;25.60;37.63
63115;BME280;49208;50.874;6.466;2023-07-13T12:53:56;100623.69;;;25.56;37.87
63115;BME280;49208;50.874;6.466;2023-07-13T12:56:24;100615.25;;;25.49;38.23
63115;BME280;49208;50.874;6.466;2023-07-13T12:58:58;100608.38;;;25.45;38.63
63115;BME280;49208;50.874;6.466;2023-07-13T13:01:27;100612.25;;;25.43;38.81
63115;BME280;49208;50.874;6.466;2023-07-13T13:03:54;100610.53;;;25.41;39.61
63115;BME280;49208;50.874;6.466;2023-07-13T13:08:50;100607.00;;;25.69;38.98
63115;BME280;49208;50.874;6.466;2023-07-13T13:11:16;100615.13;;;25.51;39.19
63115;BME280;49208;50.874;6.466;2023-07-13T13:13:43;100601.75;;;25.57;40.04
63115;BME280;49208;50.874;6.466;2023-07-13T13:16:32;100610.66;;;25.87;39.96
63115;BME280;49208;50.874;6.466;2023-07-13T13:19:05;100620.31;;;25.81;39.28
63115;BME280;49208;50.874;6.466;2023-07-13T13:21:35;100601.59;;;25.59;39.32
63115;BME280;49208;50.874;6.466;2023-07-13T13:24:01;100606.38;;;25.47;39.00
63115;BME280;49208;50.874;6.466;2023-07-13T13:26:26;100615.97;;;25.51;39.50
63115;BME280;49208;50.874;6.466;2023-07-13T13:28:51;100611.09;;;25.55;39.73
63115;BME280;49208;50.874;6.466;2023-07-13T13:31:17;100607.34;;;25.56;38.08
63115;BME280;49208;50.874;6.466;2023-07-13T13:33:44;100612.50;;;25.59;38.68
63115;BME280;49208;50.874;6.466;2023-07-13T13:36:22;100604.09;;;25.80;38.81
63115;BME280;49208;50.874;6.466;2023-07-13T13:38:49;100593.84;;;26.01;39.08
63115;BME280;49208;50.874;6.466;2023-07-13T13:41:14;100604.66;;;26.21;39.22
63115;BME280;49208;50.874;6.466;2023-07-13T13:43:41;100603.84;;;26.38;38.08
63115;BME280;49208;50.874;6.466;2023-07-13T13:46:13;100604.00;;;26.55;38.00
63115;BME280;49208;50.874;6.466;2023-07-13T13:48:39;100596.25;;;26.60;37.57
63115;BME280;49208;50.874;6.466;2023-07-13T13:51:25;100597.13;;;26.60;36.51
63115;BME280;49208;50.874;6.466;2023-07-13T13:53:51;100587.38;;;26.30;38.06
63115;BME280;49208;50.874;6.466;2023-07-13T13:56:19;100596.53;;;26.11;38.59
63115;BME280;49208;50.874;6.466;2023-07-13T13:58:45;100592.75;;;25.94;38.42
63115;BME280;49208;50.874;6.466;2023-07-13T14:01:21;100598.47;;;25.81;38.77
63115;BME280;49208;50.874;6.466;2023-07-13T14:03:50;100596.78;;;25.90;38.80
63115;BME280;49208;50.874;6.466;2023-07-13T14:06:16;100595.97;;;26.08;37.25
63115;BME280;49208;50.874;6.466;2023-07-13T14:08:42;100598.09;;;26.14;35.86
63115;BME280;49208;50.874;6.466;2023-07-13T14:11:13;100608.63;;;26.09;37.12
63115;BME280;49208;50.874;6.466;2023-07-13T14:13:45;100602.78;;;25.94;36.46
63115;BME280;49208;50.874;6.466;2023-07-13T14:16:16;100607.31;;;25.66;37.37
63115;BME280;49208;50.874;6.466;2023-07-13T14:18:46;100601.63;;;25.49;38.46
63115;BME280;49208;50.874;6.466;2023-07-13T14:21:17;100601.63;;;25.49;37.92
63115;BME280;49208;50.874;6.466;2023-07-13T14:23:44;100600.47;;;25.52;38.75
63115;BME280;49208;50.874;6.466;2023-07-13T14:26:13;100600.72;;;25.58;39.32
63115;BME280;49208;50.874;6.466;2023-07-13T14:28:43;100595.81;;;25.72;38.45
63115;BME280;49208;50.874;6.466;2023-07-13T14:31:10;100602.09;;;25.82;38.56
63115;BME280;49208;50.874;6.466;2023-07-13T14:33:36;100594.78;;;25.73;39.03
63115;BME280;49208;50.874;6.466;2023-07-13T14:36:02;100590.22;;;25.73;38.71
63115;BME280;49208;50.874;6.466;2023-07-13T14:38:28;100602.63;;;25.86;38.68
63115;BME280;49208;50.874;6.466;2023-07-13T14:40:53;100593.00;;;26.01;37.78
63115;BME280;49208;50.874;6.466;2023-07-13T14:43:19;100602.78;;;26.21;38.42
63115;BME280;49208;50.874;6.466;2023-07-13T14:45:46;100598.16;;;26.50;36.93
63115;BME280;49208;50.874;6.466;2023-07-13T14:48:22;100596.81;;;26.36;36.44
63115;BME280;49208;50.874;6.466;2023-07-13T14:50:58;100604.25;;;26.16;37.33
63115;BME280;49208;50.874;6.466;2023-07-13T14:53:26;100601.28;;;26.09;37.68
63115;BME280;49208;50.874;6.466;2023-07-13T14:55:54;100605.69;;;25.92;38.19
63115;BME280;49208;50.874;6.466;2023-07-13T14:58:20;100623.09;;;25.72;38.88
63115;BME280;49208;50.874;6.466;2023-07-13T15:00:45;100618.81;;;25.50;39.58
63115;BME280;49208;50.874;6.466;2023-07-13T15:03:23;100626.19;;;25.30;39.45
63115;BME280;49208;50.874;6.466;2023-07-13T15:05:50;100615.41;;;25.09;39.05
63115;BME280;49208;50.874;6.466;2023-07-13T15:08:16;100624.75;;;24.87;39.58
63115;BME280;49208;50.874;6.466;2023-07-13T15:10:42;100617.59;;;24.76;40.25
63115;BME280;49208;50.874;6.466;2023-07-13T15:13:19;100622.88;;;24.68;40.42
63115;BME280;49208;50.874;6.466;2023-07-13T15:15:49;100617.28;;;24.59;40.22
63115;BME280;49208;50.874;6.466;2023-07-13T15:18:16;100615.66;;;24.47;40.79
63115;BME280;49208;50.874;6.466;2023-07-13T15:20:44;100611.19;;;24.36;41.38
63115;BME280;49208;50.874;6.466;2023-07-13T15:23:11;100605.72;;;24.27;41.55
63115;BME280;49208;50.874;6.466;2023-07-13T15:25:36;100610.41;;;24.15;42.03
63115;BME280;49208;50.874;6.466;2023-07-13T15:28:02;100633.56;;;23.99;43.96
63115;BME280;49208;50.874;6.466;2023-07-13T15:30:35;100634.78;;;23.86;44.73
63115;BME280;49208;50.874;6.466;2023-07-13T15:33:15;100627.03;;;23.60;45.59
63115;BME280;49208;50.874;6.466;2023-07-13T15:35:43;100635.34;;;23.37;45.71
63115;BME280;49208;50.874;6.466;2023-07-13T15:38:24;100641.00;;;23.13;46.99
63115;BME280;49208;50.874;6.466;2023-07-13T15:40:50;100638.34;;;22.91;47.51
63115;BME280;49208;50.874;6.466;2023-07-13T15:43:17;100635.88;;;22.67;48.57
63115;BME280;49208;50.874;6.466;2023-07-13T15:45:43;100637.16;;;22.40;49.22
63115;BME280;49208;50.874;6.466;2023-07-13T15:48:19;100641.63;;;22.18;49.66
63115;BME280;49208;50.874;6.466;2023-07-13T15:50:50;100633.97;;;22.01;50.20
63115;BME280;49208;50.874;6.466;2023-07-13T15:53:20;100652.31;;;21.86;50.65
63115;BME280;49208;50.874;6.466;2023-07-13T15:55:48;100640.59;;;21.74;51.77
63115;BME280;49208;50.874;6.466;2023-07-13T15:58:14;100628.53;;;21.67;52.14
63115;BME280;49208;50.874;6.466;2023-07-13T16:00:40;100634.34;;;21.63;52.37
63115;BME280;49208;50.874;6.466;2023-07-13T16:03:05;100632.47;;;21.63;52.25
63115;BME280;49208;50.874;6.466;2023-07-13T16:05:31;100629.78;;;21.63;53.22
63115;BME280;49208;50.874;6.466;2023-07-13T16:07:57;100627.44;;;21.58;52.57
63115;BME280;49208;50.874;6.466;2023-07-13T16:10:41;100625.69;;;21.57;53.21
63115;BME280;49208;50.874;6.466;2023-07-13T16:13:16;100622.88;;;21.59;53.39
63115;BME280;49208;50.874;6.466;2023-07-13T16:15:44;100624.84;;;21.57;53.90
63115;BME280;49208;50.874;6.466;2023-07-13T16:18:14;100625.31;;;21.62;53.66
63115;BME280;49208;50.874;6.466;2023-07-13T16:20:46;100624.09;;;21.55;53.41
63115;BME280;49208;50.874;6.466;2023-07-13T16:23:14;100634.56;;;21.48;53.81
63115;BME280;49208;50.874;6.466;2023-07-13T16:25:40;100633.44;;;21.51;54.06
63115;BME280;49208;50.874;6.466;2023-07-13T16:28:12;100641.56;;;21.51;54.29
63115;BME280;49208;50.874;6.466;2023-07-13T16:30:39;100641.09;;;21.57;54.11
63115;BME280;49208;50.874;6.466;2023-07-13T16:33:05;100639.13;;;21.70;53.85
63115;BME280;49208;50.874;6.466;2023-07-13T16:35:39;100636.69;;;21.90;53.86
63115;BME280;49208;50.874;6.466;2023-07-13T16:38:17;100625.69;;;22.14;52.60
63115;BME280;49208;50.874;6.466;2023-07-13T16:40:43;100630.38;;;22.34;51.57
63115;BME280;49208;50.874;6.466;2023-07-13T16:43:12;100626.94;;;22.44;51.92
63115;BME280;49208;50.874;6.466;2023-07-13T16:45:39;100633.94;;;22.46;51.84
63115;BME280;49208;50.874;6.466;2023-07-13T16:48:19;100635.31;;;22.40;51.31
63115;BME280;49208;50.874;6.466;2023-07-13T16:50:52;100631.84;;;22.38;50.41
63115;BME280;49208;50.874;6.466;2023-07-13T16:53:21;100636.53;;;22.36;50.64
63115;BME280;49208;50.874;6.466;2023-07-13T16:55:47;100634.72;;;22.26;50.15
63115;BME280;49208;50.874;6.466;2023-07-13T16:58:13;100644.94;;;22.11;51.15
63115;BME280;49208;50.874;6.466;2023-07-13T17:00:39;100638.16;;;22.05;51.47
63115;BME280;49208;50.874;6.466;2023-07-13T17:03:05;100641.25;;;22.00;51.81
63115;BME280;49208;50.874;6.466;2023-07-13T17:05:36;100653.31;;;21.96;51.45
63115;BME280;49208;50.874;6.466;2023-07-13T17:08:11;100649.13;;;21.92;51.86
63115;BME280;49208;50.874;6.466;2023-07-13T17:10:38;100652.94;;;21.90;52.44
63115;BME280;49208;50.874;6.466;2023-07-13T17:13:08;100647.03;;;21.85;52.89
63115;BME280;49208;50.874;6.466;2023-07-13T17:15:34;100653.56;;;21.82;51.49
63115;BME280;49208;50.874;6.466;2023-07-13T17:18:00;100649.38;;;21.78;51.82
63115;BME280;49208;50.874;6.466;2023-07-13T17:20:31;100647.66;;;21.77;52.29
63115;BME280;49208;50.874;6.466;2023-07-13T17:23:02;100653.19;;;21.75;52.00
63115;BME280;49208;50.874;6.466;2023-07-13T17:25:28;100648.72;;;21.74;52.02
63115;BME280;49208;50.874;6.466;2023-07-13T17:27:55;100636.81;;;21.77;52.03
63115;BME280;49208;50.874;6.466;2023-07-13T17:30:22;100642.13;;;21.90;52.07
63115;BME280;49208;50.874;6.466;2023-07-13T17:32:49;100644.69;;;22.03;51.70
63115;BME280;49208;50.874;6.466;2023-07-13T17:35:29;100642.97;;;22.13;51.68
63115;BME280;49208;50.874;6.466;2023-07-13T17:37:59;100640.88;;;22.16;50.56
63115;BME280;49208;50.874;6.466;2023-07-13T17:40:25;100644.72;;;22.25;50.65
63115;BME280;49208;50.874;6.466;2023-07-13T17:42:51;100641.88;;;22.27;50.63
63115;BME280;49208;50.874;6.466;2023-07-13T17:45:25;100637.66;;;22.23;50.15
63115;BME280;49208;50.874;6.466;2023-07-13T17:47:53;100642.69;;;22.16;50.66
63115;BME280;49208;50.874;6.466;2023-07-13T17:50:37;100639.50;;;22.11;50.21
63115;BME280;49208;50.874;6.466;2023-07-13T17:53:17;100633.09;;;22.00;50.67
63115;BME280;49208;50.874;6.466;2023-07-13T17:55:43;100635.69;;;21.91;51.45
63115;BME280;49208;50.874;6.466;2023-07-13T17:58:09;100630.66;;;21.75;52.02
63115;BME280;49208;50.874;6.466;2023-07-13T18:00:38;100636.66;;;21.67;51.73
63115;BME280;49208;50.874;6.466;2023-07-13T18:05:39;100634.66;;;21.47;53.29
63115;BME280;49208;50.874;6.466;2023-07-13T18:08:05;100638.28;;;21.34;54.07
63115;BME280;49208;50.874;6.466;2023-07-13T18:10:33;100640.75;;;21.26;54.35
63115;BME280;49208;50.874;6.466;2023-07-13T18:12:59;100646.88;;;21.17;54.73
63115;BME280;49208;50.874;6.466;2023-07-13T18:15:28;100638.81;;;21.04;56.19
63115;BME280;49208;50.874;6.466;2023-07-13T18:17:54;100643.34;;;20.92;56.56
63115;BME280;49208;50.874;6.466;2023-07-13T18:20:21;100648.69;;;20.81;57.18
63115;BME280;49208;50.874;6.466;2023-07-13T18:22:50;100649.50;;;20.70;57.75
63115;BME280;49208;50.874;6.466;2023-07-13T18:25:19;100650.06;;;20.63;57.50
63115;BME280;49208;50.874;6.466;2023-07-13T18:27:45;100653.31;;;20.55;58.04
63115;BME280;49208;50.874;6.466;2023-07-13T18:30:14;100654.88;;;20.46;58.45
63115;BME280;49208;50.874;6.466;2023-07-13T18:32:43;100648.28;;;20.37;58.67
63115;BME280;49208;50.874;6.466;2023-07-13T18:35:19;100656.72;;;20.33;59.30
63115;BME280;49208;50.874;6.466;2023-07-13T18:37:46;100655.22;;;20.29;59.02
63115;BME280;49208;50.874;6.466;2023-07-13T18:40:17;100650.91;;;20.26;59.16
63115;BME280;49208;50.874;6.466;2023-07-13T18:42:44;100649.16;;;20.25;59.07
63115;BME280;49208;50.874;6.466;2023-07-13T18:45:12;100656.41;;;20.25;59.35
63115;BME280;49208;50.874;6.466;2023-07-13T18:47:40;100649.16;;;20.25;58.71
63115;BME280;49208;50.874;6.466;2023-07-13T18:50:25;100648.31;;;20.25;58.78
63115;BME280;49208;50.874;6.466;2023-07-13T18:52:52;100648.22;;;20.26;58.92
63115;BME280;49208;50.874;6.466;2023-07-13T18:55:20;100653.63;;;20.26;58.69
63115;BME280;49208;50.874;6.466;2023-07-13T18:57:46;100647.34;;;20.26;58.91
63115;BME280;49208;50.874;6.466;2023-07-13T19:00:15;100652.84;;;20.24;59.16
63115;BME280;49208;50.874;6.466;2023-07-13T19:02:43;100646.06;;;20.18;60.70
63115;BME280;49208;50.874;6.466;2023-07-13T19:05:14;100652.88;;;20.11;59.90
63115;BME280;49208;50.874;6.466;2023-07-13T19:07:40;100655.38;;;20.02;59.51
63115;BME280;49208;50.874;6.466;2023-07-13T19:10:12;100656.81;;;19.94;60.48
63115;BME280;49208;50.874;6.466;2023-07-13T19:12:39;100658.09;;;19.89;60.45
63115;BME280;49208;50.874;6.466;2023-07-13T19:15:17;100656.78;;;19.82;59.97
63115;BME280;49208;50.874;6.466;2023-07-13T19:17:44;100663.38;;;19.77;60.90
63115;BME280;49208;50.874;6.466;2023-07-13T19:20:13;100657.47;;;19.72;61.01
63115;BME280;49208;50.874;6.466;2023-07-13T19:22:43;100658.53;;;19.70;62.17
63115;BME280;49208;50.874;6.466;2023-07-13T19:25:14;100658.84;;;19.65;61.40
63115;BME280;49208;50.874;6.466;2023-07-13T19:27:40;100659.16;;;19.61;62.14
63115;BME280;49208;50.874;6.466;2023-07-13T19:30:11;100665.72;;;19.56;62.59
63115;BME280;49208;50.874;6.466;2023-07-13T19:32:38;100679.56;;;19.52;62.10